Time;durP1;ratioP1;P1;durP2;ratioP2;P2;SDS_P1;SDS_P2;PMS_P1;PMS_P2;Temp;Humidity;BMP_temperature;BMP_pressure;BME280_temperature;BME280_humidity;BME280_pressure;Samples;Min_cycle;Max_cycle;Signal;HPM_P1;HPM_P2
2023/01/14 00:00:37;;;;;;;44.17;10.60;;;7.10;99.90;;;;;;5111802;28;20513;-76
2023/01/14 00:03:02;;;;;;;34.57;11.67;;;7.00;99.90;;;;;;5093400;28;20047;-76
2023/01/14 00:05:28;;;;;;;33.90;10.47;;;7.10;99.90;;;;;;5112741;28;20381;-76
2023/01/14 00:07:54;;;;;;;27.43;8.67;;;7.00;99.90;;;;;;5112080;28;20035;-76
2023/01/14 00:10:19;;;;;;;27.70;9.27;;;7.20;99.90;;;;;;5112064;28;20067;-77
2023/01/14 00:12:45;;;;;;;34.50;8.73;;;7.10;99.90;;;;;;5112006;28;20043;-76
2023/01/14 00:15:11;;;;;;;36.90;9.97;;;7.00;99.90;;;;;;5111967;28;20464;-76
2023/01/14 00:17:37;;;;;;;35.23;8.97;;;7.00;99.90;;;;;;5111958;28;20078;-77
2023/01/14 00:20:03;;;;;;;36.10;11.40;;;6.90;99.90;;;;;;5112261;28;20128;-77
2023/01/14 00:22:31;;;;;;;30.53;7.83;;;6.90;99.90;;;;;;5113516;27;20040;-76
2023/01/14 00:24:57;;;;;;;40.40;19.10;;;6.90;99.90;;;;;;5125971;27;20051;-76
2023/01/14 00:27:23;;;;;;;36.10;8.00;;;6.80;99.90;;;;;;5111198;28;20513;-76
2023/01/14 00:29:48;;;;;;;31.00;11.17;;;6.70;99.90;;;;;;5112548;28;20130;-76
2023/01/14 00:32:14;;;;;;;31.80;10.73;;;6.70;99.90;;;;;;5111586;28;20534;-77
2023/01/14 00:34:40;;;;;;;39.50;10.67;;;6.60;99.90;;;;;;5111477;28;20538;-76
2023/01/14 00:37:07;;;;;;;32.23;10.03;;;6.70;99.90;;;;;;5124055;27;20035;-76
2023/01/14 00:39:32;;;;;;;34.73;8.37;;;6.60;99.90;;;;;;5113826;27;20425;-76
2023/01/14 00:41:58;;;;;;;32.63;10.00;;;6.50;99.90;;;;;;5113988;27;20114;-77
2023/01/14 00:44:24;;;;;;;36.00;9.23;;;6.50;99.90;;;;;;5113809;27;20047;-76
2023/01/14 00:46:51;;;;;;;30.70;9.37;;;6.50;99.90;;;;;;5126089;27;20046;-78
2023/01/14 00:49:19;;;;;;;34.00;9.07;;;6.50;99.90;;;;;;5111573;28;20044;-77
2023/01/14 00:51:46;;;;;;;31.60;12.37;;;6.50;99.90;;;;;;5092710;28;20097;-77
2023/01/14 00:54:12;;;;;;;196.33;177.70;;;6.50;99.90;;;;;;5106538;27;20039;-77
2023/01/14 00:56:38;;;;;;;32.43;9.70;;;6.60;99.90;;;;;;5090822;28;20051;-78
2023/01/14 00:59:03;;;;;;;31.03;9.60;;;6.70;99.90;;;;;;5111085;28;20055;-76
2023/01/14 01:01:29;;;;;;;31.53;12.23;;;6.50;99.90;;;;;;5111390;28;20126;-76
2023/01/14 01:03:56;;;;;;;27.60;8.83;;;6.60;99.90;;;;;;5111679;28;20043;-76
2023/01/14 01:06:24;;;;;;;37.80;21.37;;;6.60;99.90;;;;;;5110571;28;20051;-76
2023/01/14 01:08:49;;;;;;;27.53;10.63;;;6.70;99.90;;;;;;5111425;28;20039;-76
2023/01/14 01:11:16;;;;;;;42.50;16.47;;;6.70;99.90;;;;;;5110856;28;20080;-77
2023/01/14 01:13:43;;;;;;;105.33;95.77;;;6.80;99.90;;;;;;5111134;28;20043;-76
2023/01/14 01:16:14;;;;;;;31.07;10.17;;;6.80;99.90;;;;;;5092376;28;20394;-76
2023/01/14 01:18:41;;;;;;;31.15;8.80;;;6.90;99.90;;;;;;5110965;28;20040;-77
2023/01/14 01:21:09;;;;;;;28.70;14.90;;;7.00;99.90;;;;;;5110045;28;20051;-76
2023/01/14 01:23:40;;;;;;;34.97;10.67;;;6.90;99.90;;;;;;5122760;27;20046;-76
2023/01/14 01:26:06;;;;;;;31.10;7.73;;;7.00;99.90;;;;;;5097001;28;20376;-76
2023/01/14 01:28:33;;;;;;;32.17;8.07;;;7.10;99.90;;;;;;5093107;28;20486;-76
2023/01/14 01:31:03;;;;;;;31.67;12.70;;;7.00;99.90;;;;;;5110233;28;20058;-76
2023/01/14 01:33:29;;;;;;;28.75;7.40;;;7.00;99.90;;;;;;5110726;28;20040;-77
2023/01/14 01:36:03;;;;;;;43.40;29.47;;;7.00;99.90;;;;;;5115999;27;20356;-77
2023/01/14 01:38:29;;;;;;;37.17;10.17;;;7.00;99.90;;;;;;5128664;27;20027;-77
2023/01/14 01:40:56;;;;;;;29.90;8.07;;;6.90;99.90;;;;;;5130559;27;20039;-77
2023/01/14 01:43:24;;;;;;;32.20;8.23;;;7.00;99.90;;;;;;5112328;27;20797;-77
2023/01/14 01:45:51;;;;;;;31.03;7.27;;;7.00;99.90;;;;;;5130902;27;20047;-79
2023/01/14 01:48:22;;;;;;;37.47;10.87;;;6.90;99.90;;;;;;5112958;27;20055;-76
2023/01/14 01:51:02;;;;;;;30.33;6.90;;;7.00;99.90;;;;;;5110514;28;20042;-76
2023/01/14 01:53:29;;;;;;;34.80;13.33;;;6.90;99.90;;;;;;5117362;27;20039;-77
2023/01/14 01:55:57;;;;;;;31.73;6.63;;;6.90;99.90;;;;;;5130301;27;20047;-76
2023/01/14 01:58:26;;;;;;;34.13;7.47;;;6.80;99.90;;;;;;5110184;28;20465;-78
2023/01/14 02:00:52;;;;;;;27.27;6.87;;;6.80;99.90;;;;;;5091989;28;20548;-76
2023/01/14 02:03:24;;;;;;;35.07;8.07;;;6.90;99.90;;;;;;5092287;28;20047;-76
2023/01/14 02:05:52;;;;;;;42.60;8.33;;;6.70;99.90;;;;;;5074651;28;20031;-79
2023/01/14 02:08:18;;;;;;;29.33;7.87;;;6.70;99.90;;;;;;5091474;28;20031;-77
2023/01/14 02:10:55;;;;;;;29.37;6.77;;;6.70;99.90;;;;;;5122647;28;20047;-76
2023/01/14 02:13:30;;;;;;;31.23;7.90;;;6.70;99.90;;;;;;5130968;28;20277;-77
2023/01/14 02:16:01;;;;;;;24.93;7.67;;;6.70;99.90;;;;;;5130466;28;20053;-77
2023/01/14 02:18:50;;;;;;;28.97;6.90;;;6.70;99.90;;;;;;5130775;28;20506;-77
2023/01/14 02:21:23;;;;;;;34.83;8.37;;;6.70;99.90;;;;;;5130303;28;20516;-77
2023/01/14 02:24:27;;;;;;;32.93;7.03;;;6.80;99.90;;;;;;5105411;28;20039;-76
2023/01/14 02:27:00;;;;;;;33.90;7.43;;;6.80;99.90;;;;;;5091577;28;20480;-76
2023/01/14 02:29:43;;;;;;;33.53;8.13;;;6.80;99.90;;;;;;5092123;28;20043;-77
2023/01/14 02:32:17;;;;;;;34.43;6.97;;;6.80;99.90;;;;;;5091864;28;20054;-77
2023/01/14 02:35:13;;;;;;;25.27;7.50;;;6.80;99.90;;;;;;5109703;28;20082;-77
2023/01/14 02:37:45;;;;;;;35.90;6.93;;;6.70;99.90;;;;;;5126874;28;20047;-77
2023/01/14 02:40:42;;;;;;;34.27;15.63;;;6.70;99.90;;;;;;5130692;28;20112;-77
2023/01/14 02:46:51;;;;;;;35.07;6.83;;;6.70;99.90;;;;;;5111670;28;20435;-77
2023/01/14 02:49:23;;;;;;;32.57;7.27;;;6.70;99.90;;;;;;5130531;28;20070;-76
2023/01/14 02:51:49;;;;;;;40.77;7.70;;;6.60;99.90;;;;;;5129980;28;20516;-77
2023/01/14 02:54:18;;;;;;;30.67;7.77;;;6.50;99.90;;;;;;5130555;28;20104;-77
2023/01/14 02:56:46;;;;;;;29.37;7.50;;;6.50;99.90;;;;;;5105466;28;20434;-76
2023/01/14 02:59:21;;;;;;;32.37;7.70;;;6.40;99.90;;;;;;5091161;28;20426;-76
2023/01/14 03:02:31;;;;;;;27.70;7.03;;;6.30;99.90;;;;;;5109630;28;20387;-77
2023/01/14 03:05:17;;;;;;;32.07;7.33;;;6.30;99.90;;;;;;5006803;28;20092;-77
2023/01/14 03:08:18;;;;;;;27.97;8.77;;;6.10;99.90;;;;;;4990209;28;20100;-76
2023/01/14 03:11:01;;;;;;;29.73;9.02;;;6.00;99.90;;;;;;5093542;28;20150;-76
2023/01/14 03:13:34;;;;;;;24.40;7.33;;;5.90;99.90;;;;;;5109463;28;20051;-80
2023/01/14 03:16:15;;;;;;;30.37;8.27;;;5.90;99.90;;;;;;5110595;28;20044;-77
2023/01/14 03:19:04;;;;;;;29.02;10.48;;;5.90;99.90;;;;;;5113446;28;20050;-76
2023/01/14 03:21:37;;;;;;;34.63;9.70;;;6.00;99.90;;;;;;5113147;28;20043;-78
2023/01/14 03:24:22;;;;;;;34.73;8.37;;;6.00;99.90;;;;;;5120642;27;20039;-76
2023/01/14 03:26:49;;;;;;;35.57;7.37;;;6.00;99.90;;;;;;5095088;28;20126;-76
2023/01/14 03:29:26;;;;;;;30.80;7.80;;;6.00;99.90;;;;;;5113139;28;20071;-77
2023/01/14 03:32:07;;;;;;;32.10;7.90;;;5.90;99.90;;;;;;5112309;28;20376;-76
2023/01/14 03:34:58;;;;;;;32.28;8.63;;;6.00;99.90;;;;;;5112688;28;20537;-77
2023/01/14 03:37:28;;;;;;;34.70;8.10;;;5.90;99.90;;;;;;5103349;27;20074;-76
2023/01/14 03:39:56;;;;;;;29.07;8.33;;;5.90;99.90;;;;;;5133435;27;20038;-76
2023/01/14 03:42:26;;;;;;;26.00;6.80;;;5.70;99.90;;;;;;5114316;27;20043;-80
2023/01/14 03:45:03;;;;;;;27.20;7.77;;;5.70;99.90;;;;;;5133136;27;20126;-77
2023/01/14 03:47:34;;;;;;;37.40;9.17;;;5.60;99.90;;;;;;5121223;27;20508;-76
2023/01/14 03:50:10;;;;;;;33.33;7.40;;;5.40;99.90;;;;;;5094778;28;20465;-76
2023/01/14 03:53:08;;;;;;;34.23;7.57;;;5.40;99.90;;;;;;5111596;28;20530;-77
2023/01/14 03:55:52;;;;;;;33.37;7.83;;;5.30;99.90;;;;;;5112679;28;20043;-76
2023/01/14 03:58:39;;;;;;;33.33;6.90;;;5.30;99.90;;;;;;5113039;27;20434;-76
2023/01/14 04:01:25;;;;;;;32.73;7.67;;;5.20;99.90;;;;;;5132682;27;20481;-76
2023/01/14 04:03:52;;;;;;;36.27;7.63;;;5.30;99.90;;;;;;5132704;27;20468;-77
2023/01/14 04:06:18;;;;;;;39.87;8.17;;;5.20;99.90;;;;;;5132967;27;20078;-76
2023/01/14 04:08:43;;;;;;;31.47;8.10;;;5.10;99.90;;;;;;5132559;27;20081;-77
2023/01/14 04:11:10;;;;;;;30.00;8.60;;;5.10;99.90;;;;;;5116398;27;20055;-76
2023/01/14 04:16:20;;;;;;;29.77;8.00;;;5.20;99.90;;;;;;5111683;28;20046;-76
2023/01/14 04:18:46;;;;;;;37.40;8.93;;;5.20;99.90;;;;;;5093991;28;20036;-77
2023/01/14 04:21:11;;;;;;;36.83;7.60;;;5.30;99.90;;;;;;5111718;28;20138;-77
2023/01/14 04:23:37;;;;;;;24.27;7.83;;;5.30;99.90;;;;;;5123792;27;20035;-76
2023/01/14 04:26:03;;;;;;;31.03;8.73;;;5.10;99.90;;;;;;5098931;28;20051;-77
2023/01/14 04:28:28;;;;;;;32.70;9.20;;;5.00;99.90;;;;;;5112874;27;20066;-76
2023/01/14 04:30:54;;;;;;;33.33;9.40;;;5.00;99.90;;;;;;5132398;27;20043;-77
2023/01/14 04:33:21;;;;;;;33.50;7.43;;;5.00;99.90;;;;;;5113566;27;20059;-76
2023/01/14 04:35:50;;;;;;;29.23;8.43;;;5.00;99.90;;;;;;5109673;27;20749;-77
2023/01/14 04:38:17;;;;;;;31.53;9.27;;;5.10;99.90;;;;;;5093523;27;20042;-78
2023/01/14 04:40:43;;;;;;;36.20;8.30;;;5.00;99.90;;;;;;5132605;27;20039;-77
2023/01/14 04:43:09;;;;;;;31.57;9.13;;;5.10;99.90;;;;;;5113513;27;20479;-76
2023/01/14 04:45:35;;;;;;;32.33;8.27;;;5.20;99.90;;;;;;5131719;27;20043;-76
2023/01/14 04:48:02;;;;;;;40.90;9.77;;;5.10;99.90;;;;;;5115913;27;20031;-76
2023/01/14 04:50:30;;;;;;;30.67;7.17;;;5.00;99.90;;;;;;5112135;28;20247;-76
2023/01/14 04:53:03;;;;;;;29.63;9.73;;;5.00;99.90;;;;;;5113128;27;20069;-76
2023/01/14 04:55:29;;;;;;;27.47;9.27;;;5.00;99.90;;;;;;5132182;27;20051;-77
2023/01/14 04:57:55;;;;;;;37.30;9.97;;;5.00;99.90;;;;;;5095876;28;20063;-78
2023/01/14 05:00:21;;;;;;;31.87;9.80;;;5.00;99.90;;;;;;5111539;28;20035;-76
2023/01/14 05:02:46;;;;;;;34.97;9.17;;;5.10;99.90;;;;;;5076232;28;20418;-76
2023/01/14 05:05:12;;;;;;;32.93;9.23;;;5.10;99.90;;;;;;5111219;28;20067;-77
2023/01/14 05:07:38;;;;;;;33.63;8.27;;;5.00;99.90;;;;;;5076061;28;20372;-76
2023/01/14 05:10:04;;;;;;;37.00;10.93;;;5.00;99.90;;;;;;5124369;27;20088;-76
2023/01/14 05:12:29;;;;;;;34.43;10.53;;;5.00;99.90;;;;;;5108775;27;20072;-77
2023/01/14 05:14:55;;;;;;;36.67;17.90;;;5.00;99.90;;;;;;5128053;27;20070;-76
2023/01/14 05:17:21;;;;;;;32.27;8.50;;;5.20;99.90;;;;;;5125666;27;20096;-77
2023/01/14 05:19:47;;;;;;;39.50;10.00;;;5.10;99.90;;;;;;5109229;27;20516;-78
2023/01/14 05:22:12;;;;;;;37.00;8.20;;;5.10;99.90;;;;;;5109469;28;20134;-77
2023/01/14 05:24:38;;;;;;;34.80;9.80;;;5.10;99.90;;;;;;5120589;27;20421;-76
2023/01/14 05:27:04;;;;;;;43.97;13.97;;;5.30;99.90;;;;;;5131190;27;20038;-77
2023/01/14 05:29:29;;;;;;;31.93;10.00;;;5.10;99.90;;;;;;5131434;27;20046;-77
2023/01/14 05:31:55;;;;;;;34.50;13.50;;;5.10;99.90;;;;;;5128415;27;20043;-76
2023/01/14 05:34:21;;;;;;;31.53;13.07;;;5.20;99.90;;;;;;5128618;27;20481;-77
2023/01/14 05:36:46;;;;;;;26.67;9.80;;;5.20;99.90;;;;;;5122020;27;20448;-76
2023/01/14 05:39:12;;;;;;;35.07;11.93;;;5.10;99.90;;;;;;5127305;27;20528;-77
2023/01/14 05:45:37;;;;;;;29.67;8.17;;;5.10;99.90;;;;;;5128724;27;20365;-76
2023/01/14 05:47:07;;;;;;;33.50;11.57;;;5.20;99.90;;;;;;5130246;27;20038;-76
2023/01/14 05:49:33;;;;;;;35.47;11.10;;;5.10;99.90;;;;;;5131295;27;20357;-76
2023/01/14 05:51:59;;;;;;;36.30;15.07;;;5.10;99.90;;;;;;5130903;27;20047;-76
2023/01/14 05:54:24;;;;;;;31.97;16.03;;;5.10;99.90;;;;;;5115331;27;20039;-76
2023/01/14 05:56:50;;;;;;;25.63;12.57;;;5.20;99.90;;;;;;5117380;27;20444;-76
2023/01/14 05:59:17;;;;;;;59.83;54.07;;;5.30;99.90;;;;;;5130795;27;20043;-77
2023/01/14 06:07:15;;;;;;;27.57;11.00;;;5.20;99.90;;;;;;5110150;28;20051;-77
2023/01/14 06:09:41;;;;;;;33.53;11.00;;;5.20;99.90;;;;;;5113349;28;20382;-76
2023/01/14 06:12:07;;;;;;;31.77;10.90;;;5.20;99.90;;;;;;5130061;28;20089;-76
2023/01/14 06:14:33;;;;;;;34.93;12.63;;;5.10;99.90;;;;;;5130513;28;20054;-76
2023/01/14 06:17:02;;;;;;;38.73;11.33;;;5.10;99.90;;;;;;5130444;28;20143;-76
2023/01/14 06:19:28;;;;;;;36.53;14.07;;;5.20;99.90;;;;;;5112452;28;20086;-76
2023/01/14 06:21:53;;;;;;;34.47;10.83;;;5.10;99.90;;;;;;5130057;28;20505;-77
2023/01/14 06:24:19;;;;;;;38.67;10.87;;;5.20;99.90;;;;;;5122546;28;20085;-76
2023/01/14 06:26:45;;;;;;;37.73;12.07;;;5.20;99.90;;;;;;5110346;28;20043;-76
2023/01/14 06:29:12;;;;;;;37.20;14.00;;;5.20;99.90;;;;;;5130400;28;20047;-77
2023/01/14 06:31:38;;;;;;;37.63;14.03;;;5.20;99.90;;;;;;5112258;28;20038;-76
2023/01/14 06:34:05;;;;;;;36.17;15.57;;;5.20;99.90;;;;;;5112501;28;20472;-77
2023/01/14 06:36:33;;;;;;;36.47;12.50;;;5.10;99.90;;;;;;5120785;28;20122;-76
2023/01/14 06:38:59;;;;;;;43.73;14.33;;;5.30;99.90;;;;;;5091999;28;20366;-77
2023/01/14 06:41:25;;;;;;;45.50;12.47;;;5.20;99.90;;;;;;5112088;28;20047;-76
2023/01/14 06:43:51;;;;;;;41.90;17.33;;;5.30;99.90;;;;;;5130616;28;20045;-76
2023/01/14 06:46:18;;;;;;;48.90;13.77;;;5.30;99.90;;;;;;5112143;28;20439;-77
2023/01/14 06:48:44;;;;;;;48.03;16.90;;;5.30;99.90;;;;;;5129984;28;20047;-76
2023/01/14 06:51:16;;;;;;;38.03;11.93;;;5.30;99.90;;;;;;5132034;27;20861;-76
2023/01/14 06:53:42;;;;;;;48.30;17.87;;;5.40;99.90;;;;;;5107537;28;20035;-76
2023/01/14 06:56:10;;;;;;;45.97;19.70;;;5.30;99.90;;;;;;5115139;27;20043;-76
2023/01/14 06:58:36;;;;;;;39.50;15.33;;;5.30;99.90;;;;;;5134199;27;20051;-76
2023/01/14 07:01:02;;;;;;;46.10;13.30;;;5.30;99.90;;;;;;5133688;27;20377;-76
2023/01/14 07:03:28;;;;;;;38.63;11.07;;;5.20;99.90;;;;;;5115626;27;20077;-76
2023/01/14 07:05:54;;;;;;;46.00;13.80;;;5.30;99.90;;;;;;5116035;27;20125;-77
2023/01/14 07:08:20;;;;;;;48.03;14.60;;;5.20;99.90;;;;;;5134200;27;20043;-76
2023/01/14 07:10:49;;;;;;;40.57;14.93;;;5.30;99.90;;;;;;5121277;27;20035;-76
2023/01/14 07:13:17;;;;;;;44.17;16.13;;;5.30;99.90;;;;;;5113030;28;20130;-76
2023/01/14 07:15:43;;;;;;;48.77;13.40;;;5.30;99.90;;;;;;5113378;28;20473;-76
2023/01/14 07:18:10;;;;;;;56.20;20.80;;;5.30;99.90;;;;;;5112746;28;20035;-77
2023/01/14 07:20:36;;;;;;;55.17;21.00;;;5.30;99.90;;;;;;5095854;28;20050;-77
2023/01/14 07:23:02;;;;;;;56.77;25.97;;;5.30;99.90;;;;;;5119612;27;20368;-75
2023/01/14 07:25:28;;;;;;;46.47;18.70;;;5.30;99.90;;;;;;5122929;27;20047;-76
2023/01/14 07:27:53;;;;;;;48.27;15.63;;;5.30;99.90;;;;;;5112753;28;20468;-76
2023/01/14 07:30:19;;;;;;;48.93;18.83;;;5.40;99.90;;;;;;5113374;28;20043;-76
2023/01/14 07:32:45;;;;;;;51.20;17.53;;;5.30;99.90;;;;;;5118810;27;20074;-76
2023/01/14 07:35:10;;;;;;;48.67;18.60;;;5.40;99.90;;;;;;5127178;27;20040;-77
2023/01/14 07:37:36;;;;;;;47.33;17.63;;;5.50;99.90;;;;;;5120161;27;20082;-76
2023/01/14 07:40:03;;;;;;;58.80;21.17;;;5.40;99.90;;;;;;5151247;27;20484;-76
2023/01/14 07:42:29;;;;;;;48.97;23.40;;;5.50;99.90;;;;;;5120892;27;20051;-76
2023/01/14 07:44:54;;;;;;;50.87;19.37;;;5.50;99.90;;;;;;5112622;28;20462;-75
2023/01/14 07:47:20;;;;;;;48.47;21.30;;;5.50;99.90;;;;;;5121934;27;20037;-76
2023/01/14 07:49:46;;;;;;;38.77;19.27;;;5.60;99.90;;;;;;5115123;27;20104;-77
2023/01/14 07:52:12;;;;;;;41.07;17.10;;;5.60;99.90;;;;;;5132597;27;20050;-76
2023/01/14 07:54:39;;;;;;;57.93;34.40;;;5.60;99.90;;;;;;5116686;27;20070;-79
2023/01/14 07:57:07;;;;;;;48.93;19.17;;;5.70;99.90;;;;;;5093470;27;20472;-76
2023/01/14 07:59:33;;;;;;;49.70;24.10;;;5.60;99.90;;;;;;5122892;27;20078;-76
2023/01/14 08:01:58;;;;;;;50.27;18.73;;;5.60;99.90;;;;;;5131439;27;20472;-76
2023/01/14 08:04:24;;;;;;;56.00;23.00;;;5.60;99.90;;;;;;5132800;27;20039;-77
2023/01/14 08:06:50;;;;;;;44.93;17.50;;;5.60;99.90;;;;;;5131377;27;20066;-76
2023/01/14 08:09:17;;;;;;;47.33;18.90;;;5.60;99.90;;;;;;5132428;27;20042;-76
2023/01/14 08:11:43;;;;;;;55.13;20.30;;;5.60;99.90;;;;;;5130014;27;20039;-76
2023/01/14 08:14:09;;;;;;;43.87;15.13;;;5.60;99.90;;;;;;5114077;27;20271;-78
2023/01/14 08:16:35;;;;;;;52.23;20.60;;;5.60;99.90;;;;;;5113969;27;20042;-77
2023/01/14 08:19:00;;;;;;;52.93;29.90;;;5.60;99.90;;;;;;5113374;27;20066;-77
2023/01/14 08:21:26;;;;;;;51.73;23.53;;;5.60;99.90;;;;;;5131646;27;20046;-77
2023/01/14 08:23:52;;;;;;;47.97;20.00;;;5.70;99.90;;;;;;5123956;27;20031;-77
2023/01/14 08:26:17;;;;;;;57.13;19.40;;;5.70;99.90;;;;;;5128560;27;20043;-76
2023/01/14 08:28:43;;;;;;;48.37;19.67;;;5.70;99.90;;;;;;5131163;27;20047;-77
2023/01/14 08:31:11;;;;;;;44.40;20.63;;;5.60;99.90;;;;;;5112581;27;20061;-78
2023/01/14 08:33:38;;;;;;;64.77;25.67;;;5.60;99.90;;;;;;5131968;27;20035;-77
2023/01/14 08:36:06;;;;;;;54.87;36.83;;;5.60;99.90;;;;;;5109701;27;20472;-77
2023/01/14 08:38:33;;;;;;;57.27;17.10;;;5.70;99.90;;;;;;5123209;27;20096;-76
2023/01/14 08:41:01;;;;;;;57.17;50.97;;;5.60;99.90;;;;;;5131996;27;20074;-77
2023/01/14 08:43:27;;;;;;;165.70;148.53;;;5.70;99.90;;;;;;5131659;27;20054;-78
2023/01/14 08:45:53;;;;;;;54.70;22.47;;;5.80;99.90;;;;;;5131357;27;20076;-77
2023/01/14 08:48:18;;;;;;;65.20;40.80;;;5.70;99.90;;;;;;5131986;27;20088;-77
2023/01/14 08:50:44;;;;;;;48.73;21.20;;;5.70;99.90;;;;;;5132023;27;20035;-77
2023/01/14 08:53:09;;;;;;;135.87;123.23;;;5.60;99.90;;;;;;5130702;27;20042;-77
2023/01/14 08:55:35;;;;;;;64.13;36.03;;;5.60;99.90;;;;;;5131476;27;20043;-77
2023/01/14 08:58:04;;;;;;;50.57;18.83;;;5.60;99.90;;;;;;5130778;27;20046;-77
2023/01/14 09:00:30;;;;;;;96.23;86.67;;;5.50;99.90;;;;;;5130757;27;20477;-77
2023/01/14 09:02:55;;;;;;;66.37;56.10;;;5.70;99.90;;;;;;5131479;27;20031;-78
2023/01/14 09:05:21;;;;;;;45.30;19.17;;;5.60;99.90;;;;;;5131313;27;20422;-77
2023/01/14 09:18:43;;;;;;;50.27;20.53;;;5.50;99.90;;;;;;5120443;27;20084;-76
2023/01/14 09:21:09;;;;;;;57.27;39.53;;;5.50;99.90;;;;;;5110185;27;20032;-77
2023/01/14 09:23:35;;;;;;;61.00;54.60;;;5.50;99.90;;;;;;5112710;27;20508;-77
2023/01/14 09:26:00;;;;;;;59.07;49.23;;;5.50;99.90;;;;;;5111814;27;20040;-76
2023/01/14 09:28:26;;;;;;;89.13;80.80;;;5.70;99.90;;;;;;5110511;27;20050;-77
2023/01/14 09:30:51;;;;;;;85.17;77.20;;;5.60;99.90;;;;;;5107277;28;20083;-76
2023/01/14 09:33:17;;;;;;;60.07;52.83;;;5.50;99.90;;;;;;5112644;27;20103;-77
2023/01/14 09:35:43;;;;;;;49.83;31.57;;;5.50;99.90;;;;;;5112017;27;20070;-76
2023/01/14 09:38:08;;;;;;;37.23;18.27;;;5.50;99.90;;;;;;5110016;27;20113;-77
2023/01/14 09:40:40;;;;;;;63.77;57.73;;;5.60;99.90;;;;;;5109456;28;20092;-76
2023/01/14 09:43:15;;;;;;;50.90;38.27;;;5.50;99.90;;;;;;5108739;28;20082;-77
2023/01/14 09:45:41;;;;;;;42.83;33.73;;;5.60;99.90;;;;;;5127509;27;20039;-77
2023/01/14 09:48:19;;;;;;;53.53;44.57;;;5.50;99.90;;;;;;5129796;27;20440;-76
2023/01/14 09:50:50;;;;;;;33.80;14.90;;;5.60;99.90;;;;;;5129593;27;20114;-77
2023/01/14 09:53:34;;;;;;;38.20;21.80;;;5.60;99.90;;;;;;5128645;27;20096;-76
2023/01/14 09:56:19;;;;;;;41.63;21.63;;;5.50;99.90;;;;;;5129315;27;20519;-77
2023/01/14 09:58:56;;;;;;;37.50;15.20;;;5.50;99.90;;;;;;5121195;27;20441;-78
2023/01/14 10:01:32;;;;;;;56.93;49.37;;;5.60;99.90;;;;;;5090430;28;20374;-78
2023/01/14 10:04:24;;;;;;;37.63;24.57;;;5.60;99.90;;;;;;5108877;28;20358;-77
2023/01/14 10:06:53;;;;;;;26.83;10.00;;;5.60;99.90;;;;;;5108618;27;20066;-77
2023/01/14 10:09:27;;;;;;;33.17;13.00;;;5.50;99.90;;;;;;5109001;28;20523;-77
2023/01/14 10:11:54;;;;;;;56.10;51.73;;;5.60;99.90;;;;;;5090188;28;20501;-76
2023/01/14 10:14:30;;;;;;;80.83;74.43;;;5.60;99.90;;;;;;5107749;28;20031;-81
2023/01/14 10:17:06;;;;;;;26.60;12.53;;;5.70;99.90;;;;;;5111687;28;20092;-77
2023/01/14 10:19:46;;;;;;;488.90;443.43;;;5.60;99.90;;;;;;5090962;28;20370;-76
2023/01/14 10:22:34;;;;;;;104.20;97.53;;;5.70;99.90;;;;;;5090230;28;20559;-77
2023/01/14 10:25:00;;;;;;;98.77;91.80;;;5.80;99.90;;;;;;5095478;28;20419;-76
2023/01/14 10:27:30;;;;;;;47.97;43.80;;;5.90;99.90;;;;;;5112525;28;20035;-76
2023/01/14 10:30:00;;;;;;;18.10;13.47;;;5.90;99.90;;;;;;5077939;28;20483;-76
2023/01/14 10:32:26;;;;;;;26.50;23.10;;;5.90;99.90;;;;;;5094176;28;20039;-76
2023/01/14 10:34:55;;;;;;;24.50;22.03;;;6.10;99.90;;;;;;5112403;28;20390;-76
2023/01/14 10:37:21;;;;;;;43.30;40.30;;;6.10;99.90;;;;;;5105060;27;20039;-76
2023/01/14 10:39:52;;;;;;;153.07;143.00;;;6.10;99.90;;;;;;5134264;27;20046;-76
2023/01/14 10:42:26;;;;;;;14.57;7.43;;;6.20;99.90;;;;;;5098330;27;20531;-78
2023/01/14 10:44:53;;;;;;;16.03;12.33;;;6.10;99.90;;;;;;5134045;27;20093;-77
2023/01/14 10:47:19;;;;;;;11.30;8.83;;;6.20;99.90;;;;;;5123853;27;20388;-76
2023/01/14 10:49:48;;;;;;;14.47;11.67;;;6.40;99.90;;;;;;5113713;27;20039;-78
2023/01/14 10:52:20;;;;;;;96.17;90.23;;;6.40;99.90;;;;;;5113348;28;20134;-76
2023/01/14 10:55:12;;;;;;;;;;;6.40;99.90;;;;;;5105302;27;20120;-75
2023/01/14 10:57:39;;;;;;;;;;;6.60;99.90;;;;;;5120549;27;19919;-76
2023/01/14 11:00:08;;;;;;;37.43;34.83;;;6.70;99.90;;;;;;5097319;27;19978;-80
2023/01/14 11:02:44;;;;;;;27.87;25.87;;;6.50;99.90;;;;;;5103946;27;20395;-77
2023/01/14 11:05:32;;;;;;;12.07;9.73;;;6.50;99.90;;;;;;5130235;27;20047;-77
2023/01/14 11:08:20;;;;;;;8.70;6.87;;;6.60;99.90;;;;;;5128370;27;20373;-76
2023/01/14 11:10:53;;;;;;;122.27;113.07;;;6.60;99.90;;;;;;5129304;27;20051;-77
2023/01/14 11:13:29;;;;;;;114.73;107.93;;;6.50;99.90;;;;;;5130378;27;20122;-82
2023/01/14 11:15:55;;;;;;;13.90;12.70;;;6.50;99.90;;;;;;5130703;27;20126;-76
2023/01/14 11:18:29;;;;;;;21.37;19.77;;;6.50;99.90;;;;;;5130886;27;20176;-77
2023/01/14 11:21:06;;;;;;;34.53;32.17;;;6.50;99.90;;;;;;5129252;27;20043;-77
2023/01/14 11:23:38;;;;;;;142.40;133.00;;;6.60;99.90;;;;;;5127760;27;20496;-76
2023/01/14 11:26:10;;;;;;;18.65;17.10;;;6.60;99.90;;;;;;5129453;27;20519;-78
2023/01/14 11:28:46;;;;;;;35.83;33.73;;;6.50;99.90;;;;;;5129680;27;20043;-77
2023/01/14 11:31:13;;;;;;;16.80;15.53;;;6.50;99.90;;;;;;5128035;27;20077;-77
2023/01/14 11:33:48;;;;;;;150.50;137.67;;;6.50;99.90;;;;;;5113525;27;20473;-78
2023/01/14 11:36:24;;;;;;;22.03;20.37;;;6.40;99.90;;;;;;5104075;28;20056;-80
2023/01/14 11:38:50;;;;;;;61.20;57.70;;;6.40;99.90;;;;;;5099229;28;20036;-76
2023/01/14 11:41:42;;;;;;;34.20;31.87;;;6.50;99.90;;;;;;5109087;28;20108;-77
2023/01/14 11:44:14;;;;;;;48.47;45.37;;;6.60;99.90;;;;;;5106468;28;20131;-76
2023/01/14 11:46:43;;;;;;;;;;;6.50;99.90;;;;;;5096613;28;20108;-76
2023/01/14 11:49:24;;;;;;;88.67;83.57;;;6.50;99.90;;;;;;5109720;28;19923;-80
2023/01/14 11:52:00;;;;;;;167.30;155.85;;;6.40;99.90;;;;;;5091641;28;20043;-76
2023/01/14 11:54:37;;;;;;;39.07;36.53;;;6.40;99.90;;;;;;5109408;28;20047;-78
2023/01/14 11:57:16;;;;;;;26.20;24.23;;;6.40;99.90;;;;;;5109203;28;20054;-76
2023/01/14 11:59:43;;;;;;;23.83;21.77;;;6.50;99.90;;;;;;5083279;28;20059;-79
2023/01/14 12:02:22;;;;;;;100.63;94.47;;;6.60;99.90;;;;;;5096684;28;20117;-75
2023/01/14 12:04:53;;;;;;;279.73;256.87;;;6.60;99.90;;;;;;5102621;28;20762;-75
2023/01/14 12:07:32;;;;;;;13.57;12.23;;;6.50;99.90;;;;;;5109133;28;20040;-75
2023/01/14 12:10:06;;;;;;;196.60;181.73;;;6.50;99.90;;;;;;5109232;27;20039;-75
2023/01/14 12:18:43;;;;;;;231.17;212.43;;;6.70;99.90;;;;;;5108139;28;20134;-80
2023/01/14 12:21:09;;;;;;;473.30;422.37;;;6.70;99.90;;;;;;5108569;28;20114;-76
2023/01/14 12:23:49;;;;;;;15.50;13.67;;;6.80;99.90;;;;;;5112118;28;20426;-76
2023/01/14 12:26:20;;;;;;;58.20;54.93;;;6.60;99.90;;;;;;5088657;28;20447;-75
2023/01/14 12:28:50;;;;;;;131.50;123.63;;;6.70;99.90;;;;;;5108040;28;20428;-78
2023/01/14 12:31:33;;;;;;;170.80;155.80;;;6.60;99.90;;;;;;5089542;28;20051;-76
2023/01/14 12:34:21;;;;;;;44.10;41.07;;;6.80;99.90;;;;;;5089404;28;20040;-76
2023/01/14 12:36:53;;;;;;;313.80;283.43;;;6.90;99.90;;;;;;5096155;28;20044;-76
2023/01/14 12:48:25;;;;;;;225.13;206.77;;;7.10;99.90;;;;;;5107629;28;20092;-76
2023/01/14 12:51:28;;;;;;;91.80;85.45;;;6.80;99.90;;;;;;5096318;28;20053;-75
2023/01/14 12:53:58;;;;;;;35.83;33.30;;;7.00;99.90;;;;;;5085606;28;20495;-74
2023/01/14 12:56:33;;;;;;;36.73;34.13;;;7.10;99.90;;;;;;5089075;28;20047;-76
2023/01/14 12:59:18;;;;;;;33.97;32.03;;;7.10;99.90;;;;;;5106724;28;20100;-79
2023/01/14 13:02:03;;;;;;;34.53;32.63;;;7.30;99.90;;;;;;5106565;28;20108;-81
2023/01/14 13:04:33;;;;;;;44.33;41.77;;;7.10;99.90;;;;;;5107354;28;20469;-78
2023/01/14 13:07:05;;;;;;;50.67;47.40;;;7.10;99.90;;;;;;5106611;28;20592;-76
2023/01/14 13:09:44;;;;;;;31.23;29.57;;;7.30;99.90;;;;;;5088892;28;20051;-75
2023/01/14 13:12:28;;;;;;;38.67;36.37;;;7.20;99.90;;;;;;5106836;28;20812;-77
2023/01/14 13:14:56;;;;;;;38.17;36.07;;;7.40;99.90;;;;;;5107169;28;20353;-74
2023/01/14 13:17:33;;;;;;;43.13;40.80;;;7.30;99.90;;;;;;5106734;28;20149;-77
2023/01/14 13:20:00;;;;;;;37.50;35.40;;;7.50;99.90;;;;;;5088416;28;20035;-75
2023/01/14 13:22:39;;;;;;;61.13;57.97;;;7.60;99.90;;;;;;5106976;28;20047;-77
2023/01/14 13:25:05;;;;;;;15.03;13.87;;;7.80;99.90;;;;;;5094034;28;20178;-76
2023/01/14 13:27:35;;;;;;;48.80;46.03;;;7.70;99.90;;;;;;5104043;28;20114;-76
2023/01/14 13:30:24;;;;;;;50.97;48.27;;;7.80;99.90;;;;;;5089576;28;20043;-75
2023/01/14 13:32:58;;;;;;;63.80;60.67;;;7.70;99.90;;;;;;5076382;28;20044;-75
2023/01/14 13:35:25;;;;;;;27.43;25.73;;;7.90;99.90;;;;;;5103905;28;20076;-76
2023/01/14 13:37:53;;;;;;;47.27;44.83;;;7.80;99.90;;;;;;5103308;28;20039;-79